Flinterduin — PEBT — position and weather

sailwx.info

Track history (hours):
 
Tides and Currents Weather Stations Pressure Air Temp Water Temp Dewpoint Dewpoint Depression Visibility Wind Speed Wind Dir Waves Ship Positions

Flinterduin

Last reported at 2014-Nov-01 01:33 UTC. Time now 2014-Nov-01 02:01 UTC.
Position N 50°39' E 000°36'.

Length 112 m; beam 15 m.

Type: Cargo ship. MMSI: 246484000.

Date/timePositionNaut miles runAvg speedWind from/ knotsBaromVisibWave heightAir tempDewpointWater temp
2014-Nov-01 01:33N 50°39' E 000°36'1111.0
2014-Nov-01 00:33N 50°45' E 000°50'1212.0
2014-Oct-31 23:33N 50°52' E 001°06'1212.4
2014-Oct-31 22:33N 51°01' E 001°20'1211.9
2014-Oct-31 21:34N 51°08' E 001°35'1010.1
2014-Oct-31 20:33N 51°18' E 001°41'1010.0
2014-Oct-31 19:33N 51°27' E 001°45'1010.2
2014-Oct-31 18:33N 51°37' E 001°45'1010.4
2014-Oct-31 17:33N 51°48' E 001°43'10 9.8
2014-Oct-31 16:33N 51°55' E 001°33'9 8.8
2014-Oct-31 15:33N 51°56' E 001°19'7 7.3
2014-Oct-31 14:33N 52°01' E 001°10'1 0.7
2014-Oct-31 13:33N 52°02' E 001°10'0 0.0
2014-Oct-31 12:33N 52°02' E 001°10'0 0.0
2014-Oct-31 11:33N 52°02' E 001°10'0 0.0
2014-Oct-31 10:33N 52°02' E 001°10'0 0.0
2014-Oct-31 09:33N 52°02' E 001°10'0 0.0
2014-Oct-31 08:33N 52°02' E 001°10'0 0.0
2014-Oct-31 07:33N 52°02' E 001°10'0 0.0
2014-Oct-31 06:33N 52°02' E 001°10'0 0.0
2014-Oct-31 05:33N 52°02' E 001°10'0 0.0
2014-Oct-31 04:33N 52°02' E 001°10'0 0.0
2014-Oct-31 03:33N 52°02' E 001°10'0 0.0
2014-Oct-31 02:33N 52°02' E 001°10'0 0.0
2014-Oct-31 01:33N 52°02' E 001°10'0 0.0
2014-Oct-31 00:33N 52°02' E 001°10'0 0.0
2014-Oct-30 23:33N 52°02' E 001°10'0 0.0
2014-Oct-30 22:33N 52°02' E 001°10'0 0.0
2014-Oct-30 21:27N 52°02' E 001°10'0 0.0
2014-Oct-30 20:30N 52°02' E 001°10'0 0.0
2014-Oct-30 19:33N 52°02' E 001°10'0 0.0
2014-Oct-30 18:33N 52°02' E 001°10'0 0.0
2014-Oct-30 17:33N 52°02' E 001°10'0 0.0
2014-Oct-30 16:33N 52°02' E 001°10'0 0.0
2014-Oct-30 15:33N 52°02' E 001°10'0 0.0
2014-Oct-30 14:33N 52°02' E 001°10'0 0.0
2014-Oct-30 13:32N 52°02' E 001°10'0 0.0
2014-Oct-30 12:32N 52°02' E 001°10'0 0.0
2014-Oct-30 11:32N 52°02' E 001°10'0 0.0
2014-Oct-30 10:32N 52°02' E 001°10'0 0.0
2014-Oct-30 09:32N 52°02' E 001°10'0 0.0
2014-Oct-30 08:32N 52°02' E 001°10'0 0.0
2014-Oct-30 07:32N 52°02' E 001°10'0 0.0
2014-Oct-30 06:32N 52°02' E 001°10'0 0.0
2014-Oct-30 05:32N 52°02' E 001°10'0 0.0
2014-Oct-30 04:32N 52°02' E 001°10'0 0.0
2014-Oct-30 03:32N 52°02' E 001°10'0 0.0
2014-Oct-30 02:32N 52°02' E 001°10'0 0.0
2014-Oct-30 01:29N 52°02' E 001°10'0 0.0
2014-Oct-30 00:32N 52°02' E 001°10'0 0.0
2014-Oct-29 23:32N 52°02' E 001°10'0 0.0
2014-Oct-29 22:32N 52°02' E 001°10'0 0.0
2014-Oct-29 21:29N 52°02' E 001°10'0 0.0
2014-Oct-29 20:32N 52°02' E 001°10'0 0.0
2014-Oct-29 19:32N 52°02' E 001°10'0 0.0
2014-Oct-29 18:32N 52°02' E 001°10'0 0.0
2014-Oct-29 17:32N 52°02' E 001°10'0 0.0
2014-Oct-29 16:32N 52°02' E 001°10'0 0.0
2014-Oct-29 15:32N 52°02' E 001°10'0 0.0
2014-Oct-29 14:32N 52°02' E 001°10'0 0.0
2014-Oct-29 13:32N 52°02' E 001°10'0 0.0
2014-Oct-29 12:32N 52°02' E 001°10'0 0.0
2014-Oct-29 11:32N 52°02' E 001°10'0 0.0
2014-Oct-29 10:32N 52°02' E 001°10'0 0.0
2014-Oct-29 09:32N 52°02' E 001°10'1 0.7
2014-Oct-29 08:34N 52°01' E 001°10'7 7.2
2014-Oct-29 07:34N 51°56' E 001°19'10 9.6
2014-Oct-29 06:34N 51°56' E 001°34'3 3.3
2014-Oct-29 05:34N 51°56' E 001°40'2 1.5
2014-Oct-29 04:34N 51°55' E 001°38'6 6.1
2014-Oct-29 03:34N 51°51' E 001°46'1110.8
2014-Oct-29 02:34N 51°53' E 002°03'4112.1
2014-Oct-28 23:12N 52°02' E 003°08'812.5
2014-Oct-28 22:33N 52°02' E 003°21'1110.7
2014-Oct-28 21:34N 52°03' E 003°38'1111.1
2014-Oct-28 20:34N 52°02' E 003°56'1312.7
2014-Oct-28 19:33N 51°56' E 004°14'9 8.8
2014-Oct-28 18:33N 51°51' E 004°25'8 8.4
2014-Oct-28 17:33N 51°47' E 004°38'6 5.7
2014-Oct-28 16:32N 51°42' E 004°35'0 0.0
2014-Oct-28 15:32N 51°42' E 004°35'0 0.0
2014-Oct-28 14:32N 51°42' E 004°35'0 0.0
2014-Oct-28 13:32N 51°42' E 004°35'0 0.0
2014-Oct-28 12:32N 51°42' E 004°35'0 0.0
2014-Oct-28 11:32N 51°42' E 004°35'0 0.0
2014-Oct-28 10:26N 51°42' E 004°35'0 0.0
2014-Oct-28 09:32N 51°42' E 004°35'0 0.0
2014-Oct-28 08:29N 51°42' E 004°35'0 0.0
2014-Oct-28 07:32N 51°42' E 004°35'0 0.0
2014-Oct-28 06:29N 51°42' E 004°35'0 0.0
2014-Oct-28 05:32N 51°42' E 004°35'0 0.0
2014-Oct-28 04:32N 51°42' E 004°35'0 0.0
2014-Oct-28 03:32N 51°42' E 004°35'0 0.0
2014-Oct-28 02:31N 51°42' E 004°35'0 0.0
2014-Oct-28 01:32N 51°42' E 004°35'0 0.0
2014-Oct-28 00:31N 51°42' E 004°35'0 0.0
2014-Oct-27 23:28N 51°42' E 004°35'0 0.0
2014-Oct-27 22:31N 51°42' E 004°35'0 0.0
2014-Oct-27 21:28N 51°42' E 004°35'0 0.0
2014-Oct-27 20:28N 51°42' E 004°35'0 0.0
2014-Oct-27 19:31N 51°42' E 004°35'0 0.0
2014-Oct-27 18:31N 51°42' E 004°35'0 0.0
2014-Oct-27 17:28N 51°42' E 004°35'0 0.0
2014-Oct-27 16:22N 51°42' E 004°35'0 0.0
2014-Oct-27 15:31N 51°42' E 004°35'0 0.0
2014-Oct-27 14:31N 51°42' E 004°35'0 0.0
2014-Oct-27 13:31N 51°42' E 004°35'0 0.0
2014-Oct-27 12:31N 51°42' E 004°35'0 0.0
2014-Oct-27 11:28N 51°42' E 004°35'0 0.0
2014-Oct-27 10:28N 51°42' E 004°35'0 0.0
2014-Oct-27 09:31N 51°42' E 004°35'0 0.0
2014-Oct-27 08:31N 51°42' E 004°35'0 0.0
2014-Oct-27 07:31N 51°42' E 004°35'0 0.0
2014-Oct-27 06:31N 51°42' E 004°35'0 0.0
2014-Oct-27 05:31N 51°42' E 004°35'0 0.0
2014-Oct-27 04:31N 51°42' E 004°35'0 0.0
2014-Oct-27 03:31N 51°42' E 004°35'0 0.0
2014-Oct-27 02:31N 51°42' E 004°35'0 0.0
2014-Oct-27 01:31N 51°42' E 004°35'0 0.0
2014-Oct-27 00:31N 51°42' E 004°35'0 0.0
2014-Oct-26 23:31N 51°42' E 004°35'0 0.0
2014-Oct-26 22:31N 51°42' E 004°35'0 0.0
2014-Oct-26 21:31N 51°42' E 004°35'0 0.0
2014-Oct-26 20:31N 51°42' E 004°35'0 0.0
2014-Oct-26 19:31N 51°42' E 004°35'0 0.0
2014-Oct-26 18:31N 51°42' E 004°35'0 0.0
2014-Oct-26 17:25N 51°42' E 004°35'0 0.0
2014-Oct-26 16:34N 51°42' E 004°35'0 0.0
2014-Oct-26 15:33N 51°42' E 004°35'0 0.0
2014-Oct-26 14:30N 51°42' E 004°35'0 0.0
2014-Oct-26 13:33N 51°42' E 004°35'0 0.0
2014-Oct-26 12:30N 51°42' E 004°35'0 0.0
2014-Oct-26 11:27N 51°42' E 004°35'0 0.0
2014-Oct-26 10:33N 51°42' E 004°35'0 0.0
2014-Oct-26 09:33N 51°42' E 004°35'0 0.0
2014-Oct-26 07:30N 51°42' E 004°35'0 0.0
2014-Oct-26 06:33N 51°42' E 004°35'0 0.0
2014-Oct-26 05:33N 51°42' E 004°35'0 0.0
2014-Oct-26 04:30N 51°42' E 004°35'0 0.0
2014-Oct-26 03:33N 51°42' E 004°35'0 0.0
2014-Oct-26 02:33N 51°42' E 004°35'0 0.0
2014-Oct-26 01:33N 51°42' E 004°35'0 0.0
2014-Oct-26 00:30N 51°42' E 004°35'0 0.0
2014-Oct-25 23:33N 51°42' E 004°35'0 0.0
2014-Oct-25 22:30N 51°42' E 004°35'0 0.0
2014-Oct-25 21:33N 51°42' E 004°35'0 0.0
2014-Oct-25 20:33N 51°42' E 004°35'0 0.0
2014-Oct-25 19:30N 51°42' E 004°35'0 0.0
2014-Oct-25 18:33N 51°42' E 004°35'0 0.0
2014-Oct-25 17:30N 51°42' E 004°35'0 0.0
2014-Oct-25 16:33N 51°42' E 004°35'0 0.0
2014-Oct-25 15:33N 51°42' E 004°35'0 0.0
2014-Oct-25 14:33N 51°42' E 004°35'0 0.0
2014-Oct-25 13:30N 51°42' E 004°35'0 0.0
2014-Oct-25 12:33N 51°42' E 004°35'0 0.0
2014-Oct-25 11:06N 51°42' E 004°35'0 0.0
2014-Oct-25 10:27N 51°42' E 004°35'0 0.0
2014-Oct-25 09:33N 51°42' E 004°35'0 0.0
2014-Oct-25 08:33N 51°42' E 004°35'0 0.0
2014-Oct-25 07:30N 51°42' E 004°35'0 0.0
2014-Oct-25 06:33N 51°42' E 004°35'0 0.0
2014-Oct-25 05:33N 51°42' E 004°35'0 0.0
2014-Oct-25 04:29N 51°42' E 004°35'0 0.0
2014-Oct-25 03:29N 51°42' E 004°35'0 0.0
2014-Oct-25 02:32N 51°42' E 004°35'0 0.0
2014-Oct-25 01:32N 51°42' E 004°35'0 0.0
2014-Oct-25 00:32N 51°42' E 004°35'0 0.0
2014-Oct-24 23:32N 51°42' E 004°35'0 0.0
2014-Oct-24 22:32N 51°42' E 004°35'0 0.0
2014-Oct-24 21:26N 51°42' E 004°35'0 0.0
2014-Oct-24 20:32N 51°42' E 004°35'0 0.0
2014-Oct-24 19:32N 51°42' E 004°35'0 0.0
2014-Oct-24 18:29N 51°42' E 004°35'0 0.0
2014-Oct-24 17:32N 51°42' E 004°35'0 0.0
2014-Oct-24 16:20N 51°42' E 004°35'0 0.0
2014-Oct-24 15:29N 51°42' E 004°35'0 0.0
2014-Oct-24 14:29N 51°42' E 004°35'0 0.0
2014-Oct-24 13:29N 51°42' E 004°35'0 0.0
2014-Oct-24 12:29N 51°42' E 004°35'0 0.0
2014-Oct-24 11:32N 51°42' E 004°35'0 0.0
2014-Oct-24 10:32N 51°42' E 004°35'0 0.0
2014-Oct-24 09:26N 51°42' E 004°35'0 0.0
2014-Oct-24 08:26N 51°42' E 004°35'0 0.0
2014-Oct-24 07:29N 51°42' E 004°35'0 0.0
2014-Oct-24 06:32N 51°42' E 004°35'0 0.0
2014-Oct-24 05:32N 51°42' E 004°35'0 0.0
2014-Oct-24 04:23N 51°42' E 004°35'0 0.0
2014-Oct-24 03:32N 51°42' E 004°35'0 0.0
2014-Oct-24 02:11N 51°42' E 004°35'0 0.0
2014-Oct-24 01:23N 51°42' E 004°35'0 0.0
2014-Oct-24 00:23N 51°42' E 004°35'0 0.0
2014-Oct-23 23:26N 51°42' E 004°35'0 0.0
2014-Oct-23 22:26N 51°42' E 004°35'0 0.0
2014-Oct-23 21:17N 51°42' E 004°35'0 0.0
2014-Oct-23 19:23N 51°42' E 004°35'0 0.0
2014-Oct-23 18:32N 51°42' E 004°35'0 0.0
2014-Oct-23 17:31N 51°42' E 004°35'0 0.0
2014-Oct-23 16:31N 51°42' E 004°35'0 0.0
2014-Oct-23 15:28N 51°42' E 004°35'0 0.0
2014-Oct-23 14:31N 51°42' E 004°35'0 0.0
2014-Oct-23 13:32N 51°42' E 004°35'0 0.0
2014-Oct-23 12:32N 51°42' E 004°35'0 0.0
2014-Oct-23 11:31N 51°42' E 004°35'0 0.0
2014-Oct-23 10:31N 51°42' E 004°35'2 2.5
2014-Oct-23 09:33N 51°44' E 004°38'6 6.4
2014-Oct-23 08:33N 51°49' E 004°33'8 8.0
2014-Oct-23 07:34N 51°51' E 004°21'7 7.2
2014-Oct-23 06:34N 51°56' E 004°12'8 8.1
2014-Oct-23 05:34N 51°60' E 004°01'1111.0
2014-Oct-23 04:33N 51°58' E 003°43'1510.9
2014-Oct-23 03:13N 51°55' E 003°20'2110.9
2014-Oct-23 01:21N 51°48' E 002°49'911.5
2014-Oct-23 00:32N 51°44' E 002°35'1412.8
2014-Oct-22 23:28N 51°34' E 002°21'1212.5
2014-Oct-22 22:33N 51°24' E 002°10'1212.0
2014-Oct-22 21:33N 51°14' E 002°02'1211.9
2014-Oct-22 20:34N 51°07' E 001°47'1110.6
2014-Oct-22 19:33N 50°59' E 001°35'10 9.5
2014-Oct-22 18:32N 50°51' E 001°26'9 9.1
2014-Oct-22 17:33N 50°43' E 001°21'19 9.6
2014-Oct-22 15:32N 50°31' E 000°57'1110.3
2014-Oct-22 14:30N 50°28' E 000°41'  
Track history (hours):
 
Tides and Currents Weather Stations Pressure Air Temp Water Temp Dewpoint Dewpoint Depression Visibility Wind Speed Wind Dir Waves Ship Positions

Flinterduin

Last reported at 2014-Nov-01 01:33 UTC. Time now 2014-Nov-01 02:01 UTC.
Position N 50°39' E 000°36'.

Length 112 m; beam 15 m.

Type: Cargo ship. MMSI: 246484000.

Date/timePositionNaut miles runAvg speedWind from/ knotsBaromVisibWave heightAir tempDewpointWater temp
2014-Nov-01 01:33N 50°39' E 000°36'1111.0
2014-Nov-01 00:33N 50°45' E 000°50'1212.0
2014-Oct-31 23:33N 50°52' E 001°06'1212.4
2014-Oct-31 22:33N 51°01' E 001°20'1211.9
2014-Oct-31 21:34N 51°08' E 001°35'1010.1
2014-Oct-31 20:33N 51°18' E 001°41'1010.0
2014-Oct-31 19:33N 51°27' E 001°45'1010.2
2014-Oct-31 18:33N 51°37' E 001°45'1010.4
2014-Oct-31 17:33N 51°48' E 001°43'10 9.8
2014-Oct-31 16:33N 51°55' E 001°33'9 8.8
2014-Oct-31 15:33N 51°56' E 001°19'7 7.3
2014-Oct-31 14:33N 52°01' E 001°10'1 0.7
2014-Oct-31 13:33N 52°02' E 001°10'0 0.0
2014-Oct-31 12:33N 52°02' E 001°10'0 0.0
2014-Oct-31 11:33N 52°02' E 001°10'0 0.0
2014-Oct-31 10:33N 52°02' E 001°10'0 0.0
2014-Oct-31 09:33N 52°02' E 001°10'0 0.0
2014-Oct-31 08:33N 52°02' E 001°10'0 0.0
2014-Oct-31 07:33N 52°02' E 001°10'0 0.0
2014-Oct-31 06:33N 52°02' E 001°10'0 0.0
2014-Oct-31 05:33N 52°02' E 001°10'0 0.0
2014-Oct-31 04:33N 52°02' E 001°10'0 0.0
2014-Oct-31 03:33N 52°02' E 001°10'0 0.0
2014-Oct-31 02:33N 52°02' E 001°10'0 0.0
2014-Oct-31 01:33N 52°02' E 001°10'0 0.0
2014-Oct-31 00:33N 52°02' E 001°10'0 0.0
2014-Oct-30 23:33N 52°02' E 001°10'0 0.0
2014-Oct-30 22:33N 52°02' E 001°10'0 0.0
2014-Oct-30 21:27N 52°02' E 001°10'0 0.0
2014-Oct-30 20:30N 52°02' E 001°10'0 0.0
2014-Oct-30 19:33N 52°02' E 001°10'0 0.0
2014-Oct-30 18:33N 52°02' E 001°10'0 0.0
2014-Oct-30 17:33N 52°02' E 001°10'0 0.0
2014-Oct-30 16:33N 52°02' E 001°10'0 0.0
2014-Oct-30 15:33N 52°02' E 001°10'0 0.0
2014-Oct-30 14:33N 52°02' E 001°10'0 0.0
2014-Oct-30 13:32N 52°02' E 001°10'0 0.0
2014-Oct-30 12:32N 52°02' E 001°10'0 0.0
2014-Oct-30 11:32N 52°02' E 001°10'0 0.0
2014-Oct-30 10:32N 52°02' E 001°10'0 0.0
2014-Oct-30 09:32N 52°02' E 001°10'0 0.0
2014-Oct-30 08:32N 52°02' E 001°10'0 0.0
2014-Oct-30 07:32N 52°02' E 001°10'0 0.0
2014-Oct-30 06:32N 52°02' E 001°10'0 0.0
2014-Oct-30 05:32N 52°02' E 001°10'0 0.0
2014-Oct-30 04:32N 52°02' E 001°10'0 0.0
2014-Oct-30 03:32N 52°02' E 001°10'0 0.0
2014-Oct-30 02:32N 52°02' E 001°10'0 0.0
2014-Oct-30 01:29N 52°02' E 001°10'0 0.0
2014-Oct-30 00:32N 52°02' E 001°10'0 0.0
2014-Oct-29 23:32N 52°02' E 001°10'0 0.0
2014-Oct-29 22:32N 52°02' E 001°10'0 0.0
2014-Oct-29 21:29N 52°02' E 001°10'0 0.0
2014-Oct-29 20:32N 52°02' E 001°10'0 0.0
2014-Oct-29 19:32N 52°02' E 001°10'0 0.0
2014-Oct-29 18:32N 52°02' E 001°10'0 0.0
2014-Oct-29 17:32N 52°02' E 001°10'0 0.0
2014-Oct-29 16:32N 52°02' E 001°10'0 0.0
2014-Oct-29 15:32N 52°02' E 001°10'0 0.0
2014-Oct-29 14:32N 52°02' E 001°10'0 0.0
2014-Oct-29 13:32N 52°02' E 001°10'0 0.0
2014-Oct-29 12:32N 52°02' E 001°10'0 0.0
2014-Oct-29 11:32N 52°02' E 001°10'0 0.0
2014-Oct-29 10:32N 52°02' E 001°10'0 0.0
2014-Oct-29 09:32N 52°02' E 001°10'1 0.7
2014-Oct-29 08:34N 52°01' E 001°10'7 7.2
2014-Oct-29 07:34N 51°56' E 001°19'10 9.6
2014-Oct-29 06:34N 51°56' E 001°34'3 3.3
2014-Oct-29 05:34N 51°56' E 001°40'2 1.5
2014-Oct-29 04:34N 51°55' E 001°38'6 6.1
2014-Oct-29 03:34N 51°51' E 001°46'1110.8
2014-Oct-29 02:34N 51°53' E 002°03'4112.1
2014-Oct-28 23:12N 52°02' E 003°08'812.5
2014-Oct-28 22:33N 52°02' E 003°21'1110.7
2014-Oct-28 21:34N 52°03' E 003°38'1111.1
2014-Oct-28 20:34N 52°02' E 003°56'1312.7
2014-Oct-28 19:33N 51°56' E 004°14'9 8.8
2014-Oct-28 18:33N 51°51' E 004°25'8 8.4
2014-Oct-28 17:33N 51°47' E 004°38'6 5.7
2014-Oct-28 16:32N 51°42' E 004°35'0 0.0
2014-Oct-28 15:32N 51°42' E 004°35'0 0.0
2014-Oct-28 14:32N 51°42' E 004°35'0 0.0
2014-Oct-28 13:32N 51°42' E 004°35'0 0.0
2014-Oct-28 12:32N 51°42' E 004°35'0 0.0
2014-Oct-28 11:32N 51°42' E 004°35'0 0.0
2014-Oct-28 10:26N 51°42' E 004°35'0 0.0
2014-Oct-28 09:32N 51°42' E 004°35'0 0.0
2014-Oct-28 08:29N 51°42' E 004°35'0 0.0
2014-Oct-28 07:32N 51°42' E 004°35'0 0.0
2014-Oct-28 06:29N 51°42' E 004°35'0 0.0
2014-Oct-28 05:32N 51°42' E 004°35'0 0.0
2014-Oct-28 04:32N 51°42' E 004°35'0 0.0
2014-Oct-28 03:32N 51°42' E 004°35'0 0.0
2014-Oct-28 02:31N 51°42' E 004°35'0 0.0
2014-Oct-28 01:32N 51°42' E 004°35'0 0.0
2014-Oct-28 00:31N 51°42' E 004°35'0 0.0
2014-Oct-27 23:28N 51°42' E 004°35'0 0.0
2014-Oct-27 22:31N 51°42' E 004°35'0 0.0
2014-Oct-27 21:28N 51°42' E 004°35'0 0.0
2014-Oct-27 20:28N 51°42' E 004°35'0 0.0
2014-Oct-27 19:31N 51°42' E 004°35'0 0.0
2014-Oct-27 18:31N 51°42' E 004°35'0 0.0
2014-Oct-27 17:28N 51°42' E 004°35'0 0.0
2014-Oct-27 16:22N 51°42' E 004°35'0 0.0
2014-Oct-27 15:31N 51°42' E 004°35'0 0.0
2014-Oct-27 14:31N 51°42' E 004°35'0 0.0
2014-Oct-27 13:31N 51°42' E 004°35'0 0.0
2014-Oct-27 12:31N 51°42' E 004°35'0 0.0
2014-Oct-27 11:28N 51°42' E 004°35'0 0.0
2014-Oct-27 10:28N 51°42' E 004°35'0 0.0
2014-Oct-27 09:31N 51°42' E 004°35'0 0.0
2014-Oct-27 08:31N 51°42' E 004°35'0 0.0
2014-Oct-27 07:31N 51°42' E 004°35'0 0.0
2014-Oct-27 06:31N 51°42' E 004°35'0 0.0
2014-Oct-27 05:31N 51°42' E 004°35'0 0.0
2014-Oct-27 04:31N 51°42' E 004°35'0 0.0
2014-Oct-27 03:31N 51°42' E 004°35'0 0.0
2014-Oct-27 02:31N 51°42' E 004°35'0 0.0
2014-Oct-27 01:31N 51°42' E 004°35'0 0.0
2014-Oct-27 00:31N 51°42' E 004°35'0 0.0
2014-Oct-26 23:31N 51°42' E 004°35'0 0.0
2014-Oct-26 22:31N 51°42' E 004°35'0 0.0
2014-Oct-26 21:31N 51°42' E 004°35'0 0.0
2014-Oct-26 20:31N 51°42' E 004°35'0 0.0
2014-Oct-26 19:31N 51°42' E 004°35'0 0.0
2014-Oct-26 18:31N 51°42' E 004°35'0 0.0
2014-Oct-26 17:25N 51°42' E 004°35'0 0.0
2014-Oct-26 16:34N 51°42' E 004°35'0 0.0
2014-Oct-26 15:33N 51°42' E 004°35'0 0.0
2014-Oct-26 14:30N 51°42' E 004°35'0 0.0
2014-Oct-26 13:33N 51°42' E 004°35'0 0.0
2014-Oct-26 12:30N 51°42' E 004°35'0 0.0
2014-Oct-26 11:27N 51°42' E 004°35'0 0.0
2014-Oct-26 10:33N 51°42' E 004°35'0 0.0
2014-Oct-26 09:33N 51°42' E 004°35'0 0.0
2014-Oct-26 07:30N 51°42' E 004°35'0 0.0
2014-Oct-26 06:33N 51°42' E 004°35'0 0.0
2014-Oct-26 05:33N 51°42' E 004°35'0 0.0
2014-Oct-26 04:30N 51°42' E 004°35'0 0.0
2014-Oct-26 03:33N 51°42' E 004°35'0 0.0
2014-Oct-26 02:33N 51°42' E 004°35'0 0.0
2014-Oct-26 01:33N 51°42' E 004°35'0 0.0
2014-Oct-26 00:30N 51°42' E 004°35'0 0.0
2014-Oct-25 23:33N 51°42' E 004°35'0 0.0
2014-Oct-25 22:30N 51°42' E 004°35'0 0.0
2014-Oct-25 21:33N 51°42' E 004°35'0 0.0
2014-Oct-25 20:33N 51°42' E 004°35'0 0.0
2014-Oct-25 19:30N 51°42' E 004°35'0 0.0
2014-Oct-25 18:33N 51°42' E 004°35'0 0.0
2014-Oct-25 17:30N 51°42' E 004°35'0 0.0
2014-Oct-25 16:33N 51°42' E 004°35'0 0.0
2014-Oct-25 15:33N 51°42' E 004°35'0 0.0
2014-Oct-25 14:33N 51°42' E 004°35'0 0.0
2014-Oct-25 13:30N 51°42' E 004°35'0 0.0
2014-Oct-25 12:33N 51°42' E 004°35'0 0.0
2014-Oct-25 11:06N 51°42' E 004°35'0 0.0
2014-Oct-25 10:27N 51°42' E 004°35'0 0.0
2014-Oct-25 09:33N 51°42' E 004°35'0 0.0
2014-Oct-25 08:33N 51°42' E 004°35'0 0.0
2014-Oct-25 07:30N 51°42' E 004°35'0 0.0
2014-Oct-25 06:33N 51°42' E 004°35'0 0.0
2014-Oct-25 05:33N 51°42' E 004°35'0 0.0
2014-Oct-25 04:29N 51°42' E 004°35'0 0.0
2014-Oct-25 03:29N 51°42' E 004°35'0 0.0
2014-Oct-25 02:32N 51°42' E 004°35'0 0.0
2014-Oct-25 01:32N 51°42' E 004°35'0 0.0
2014-Oct-25 00:32N 51°42' E 004°35'0 0.0
2014-Oct-24 23:32N 51°42' E 004°35'0 0.0
2014-Oct-24 22:32N 51°42' E 004°35'0 0.0
2014-Oct-24 21:26N 51°42' E 004°35'0 0.0
2014-Oct-24 20:32N 51°42' E 004°35'0 0.0
2014-Oct-24 19:32N 51°42' E 004°35'0 0.0
2014-Oct-24 18:29N 51°42' E 004°35'0 0.0
2014-Oct-24 17:32N 51°42' E 004°35'0 0.0
2014-Oct-24 16:20N 51°42' E 004°35'0 0.0
2014-Oct-24 15:29N 51°42' E 004°35'0 0.0
2014-Oct-24 14:29N 51°42' E 004°35'0 0.0
2014-Oct-24 13:29N 51°42' E 004°35'0 0.0
2014-Oct-24 12:29N 51°42' E 004°35'0 0.0
2014-Oct-24 11:32N 51°42' E 004°35'0 0.0
2014-Oct-24 10:32N 51°42' E 004°35'0 0.0
2014-Oct-24 09:26N 51°42' E 004°35'0 0.0
2014-Oct-24 08:26N 51°42' E 004°35'0 0.0
2014-Oct-24 07:29N 51°42' E 004°35'0 0.0
2014-Oct-24 06:32N 51°42' E 004°35'0 0.0
2014-Oct-24 05:32N 51°42' E 004°35'0 0.0
2014-Oct-24 04:23N 51°42' E 004°35'0 0.0
2014-Oct-24 03:32N 51°42' E 004°35'0 0.0
2014-Oct-24 02:11N 51°42' E 004°35'0 0.0
2014-Oct-24 01:23N 51°42' E 004°35'0 0.0
2014-Oct-24 00:23N 51°42' E 004°35'0 0.0
2014-Oct-23 23:26N 51°42' E 004°35'0 0.0
2014-Oct-23 22:26N 51°42' E 004°35'0 0.0
2014-Oct-23 21:17N 51°42' E 004°35'0 0.0
2014-Oct-23 19:23N 51°42' E 004°35'0 0.0
2014-Oct-23 18:32N 51°42' E 004°35'0 0.0
2014-Oct-23 17:31N 51°42' E 004°35'0 0.0
2014-Oct-23 16:31N 51°42' E 004°35'0 0.0
2014-Oct-23 15:28N 51°42' E 004°35'0 0.0
2014-Oct-23 14:31N 51°42' E 004°35'0 0.0
2014-Oct-23 13:32N 51°42' E 004°35'0 0.0
2014-Oct-23 12:32N 51°42' E 004°35'0 0.0
2014-Oct-23 11:31N 51°42' E 004°35'0 0.0
2014-Oct-23 10:31N 51°42' E 004°35'2 2.5
2014-Oct-23 09:33N 51°44' E 004°38'6 6.4
2014-Oct-23 08:33N 51°49' E 004°33'8 8.0
2014-Oct-23 07:34N 51°51' E 004°21'7 7.2
2014-Oct-23 06:34N 51°56' E 004°12'8 8.1
2014-Oct-23 05:34N 51°60' E 004°01'1111.0
2014-Oct-23 04:33N 51°58' E 003°43'1510.9
2014-Oct-23 03:13N 51°55' E 003°20'2110.9
2014-Oct-23 01:21N 51°48' E 002°49'911.5
2014-Oct-23 00:32N 51°44' E 002°35'1412.8
2014-Oct-22 23:28N 51°34' E 002°21'1212.5
2014-Oct-22 22:33N 51°24' E 002°10'1212.0
2014-Oct-22 21:33N 51°14' E 002°02'1211.9
2014-Oct-22 20:34N 51°07' E 001°47'1110.6
2014-Oct-22 19:33N 50°59' E 001°35'10 9.5
2014-Oct-22 18:32N 50°51' E 001°26'9 9.1
2014-Oct-22 17:33N 50°43' E 001°21'19 9.6
2014-Oct-22 15:32N 50°31' E 000°57'1110.3
2014-Oct-22 14:30N 50°28' E 000°41'  

Dump ship's entire track history